Rupert, Pennsylvania
Current Conditions -  °F | °C
As of 8:35 PM on Monday 22 Dec 2014 (Local Time) from KHZL Reporting Station
Light Rain Light Rain  
Wind Chill: 32°   Ceiling: 200
Heat Index: 36°   Visibility: 2.5mi
Dew Point: 34°   Wind: 5mph
Humidity: 93%   Direction: 120°ESE
Pressure: 30.17"   Gusts: NA
Location:  41.0301°N, 76.4558°W
Report Text: KHZL 230135Z AUTO 12004KT 2 1/2SM -RA OVC002 02/01 A3017 RMK AO2
Loading
Personal Weather Stations






























Interactive Weather Map New forecast layout! Learn more

10-Day Weather Forecast

Advertisements
Track Severe Weather on mobile